sensor_id;sensor_type;location;lat;lon;timestamp;temperature;humidity
41756;DHT22;27435;48.480;9.258;2023-07-28T00:01:32;16.90;99.00
41756;DHT22;27435;48.480;9.258;2023-07-28T00:03:58;16.70;99.00
41756;DHT22;27435;48.480;9.258;2023-07-28T00:06:23;16.70;99.00
41756;DHT22;27435;48.480;9.258;2023-07-28T00:08:49;16.60;99.00
41756;DHT22;27435;48.480;9.258;2023-07-28T00:11:15;16.60;99.00
41756;DHT22;27435;48.480;9.258;2023-07-28T00:13:42;16.60;99.00
41756;DHT22;27435;48.480;9.258;2023-07-28T00:16:08;16.50;99.00
41756;DHT22;27435;48.480;9.258;2023-07-28T00:18:35;16.40;99.00
41756;DHT22;27435;48.480;9.258;2023-07-28T00:21:01;16.40;99.00
41756;DHT22;27435;48.480;9.258;2023-07-28T00:23:28;16.40;99.00
41756;DHT22;27435;48.480;9.258;2023-07-28T00:25:53;16.50;99.00
41756;DHT22;27435;48.480;9.258;2023-07-28T00:28:19;16.50;99.00
41756;DHT22;27435;48.480;9.258;2023-07-28T00:30:49;16.50;99.00
41756;DHT22;27435;48.480;9.258;2023-07-28T00:33:15;16.50;99.00
41756;DHT22;27435;48.480;9.258;2023-07-28T00:35:40;16.40;99.00
41756;DHT22;27435;48.480;9.258;2023-07-28T00:38:06;16.30;99.00
41756;DHT22;27435;48.480;9.258;2023-07-28T00:40:32;16.50;99.00
41756;DHT22;27435;48.480;9.258;2023-07-28T00:42:57;16.30;99.00
41756;DHT22;27435;48.480;9.258;2023-07-28T00:45:23;16.00;99.00
41756;DHT22;27435;48.480;9.258;2023-07-28T00:47:49;15.80;99.00
41756;DHT22;27435;48.480;9.258;2023-07-28T00:50:15;15.60;99.00
41756;DHT22;27435;48.480;9.258;2023-07-28T00:52:40;15.60;99.00
41756;DHT22;27435;48.480;9.258;2023-07-28T00:55:07;15.80;99.00
41756;DHT22;27435;48.480;9.258;2023-07-28T00:57:33;15.80;99.00
41756;DHT22;27435;48.480;9.258;2023-07-28T01:00:00;15.80;99.00
41756;DHT22;27435;48.480;9.258;2023-07-28T01:02:26;15.70;99.00
41756;DHT22;27435;48.480;9.258;2023-07-28T01:04:52;15.60;99.00
41756;DHT22;27435;48.480;9.258;2023-07-28T01:07:23;15.70;99.00
41756;DHT22;27435;48.480;9.258;2023-07-28T01:10:13;15.60;99.00
41756;DHT22;27435;48.480;9.258;2023-07-28T01:12:40;15.70;99.00
41756;DHT22;27435;48.480;9.258;2023-07-28T01:15:06;15.60;99.00
41756;DHT22;27435;48.480;9.258;2023-07-28T01:17:32;15.80;99.00
41756;DHT22;27435;48.480;9.258;2023-07-28T01:19:58;15.90;99.00
41756;DHT22;27435;48.480;9.258;2023-07-28T01:27:57;15.80;99.00
41756;DHT22;27435;48.480;9.258;2023-07-28T01:30:24;15.70;99.00
41756;DHT22;27435;48.480;9.258;2023-07-28T01:32:54;15.60;99.00
41756;DHT22;27435;48.480;9.258;2023-07-28T01:35:20;15.50;99.00
41756;DHT22;27435;48.480;9.258;2023-07-28T01:37:45;15.40;99.00
41756;DHT22;27435;48.480;9.258;2023-07-28T01:40:16;15.30;99.00
41756;DHT22;27435;48.480;9.258;2023-07-28T01:42:42;15.30;99.00
41756;DHT22;27435;48.480;9.258;2023-07-28T01:45:08;15.30;99.00
41756;DHT22;27435;48.480;9.258;2023-07-28T01:47:34;15.30;99.00
41756;DHT22;27435;48.480;9.258;2023-07-28T01:49:59;15.20;99.00
41756;DHT22;27435;48.480;9.258;2023-07-28T01:52:25;15.20;99.00
41756;DHT22;27435;48.480;9.258;2023-07-28T01:54:51;15.20;99.00
41756;DHT22;27435;48.480;9.258;2023-07-28T01:57:17;15.20;99.00
41756;DHT22;27435;48.480;9.258;2023-07-28T01:59:42;15.10;99.00
41756;DHT22;27435;48.480;9.258;2023-07-28T02:02:09;15.00;99.00
41756;DHT22;27435;48.480;9.258;2023-07-28T02:04:34;15.00;99.00
41756;DHT22;27435;48.480;9.258;2023-07-28T02:07:00;15.00;99.00
41756;DHT22;27435;48.480;9.258;2023-07-28T02:09:26;15.00;99.00
41756;DHT22;27435;48.480;9.258;2023-07-28T02:11:52;15.10;99.00
41756;DHT22;27435;48.480;9.258;2023-07-28T02:14:18;15.00;99.00
41756;DHT22;27435;48.480;9.258;2023-07-28T02:16:44;15.10;99.00
41756;DHT22;27435;48.480;9.258;2023-07-28T02:19:09;15.10;99.00
41756;DHT22;27435;48.480;9.258;2023-07-28T02:21:35;15.00;99.00
41756;DHT22;27435;48.480;9.258;2023-07-28T02:24:00;15.10;99.00
41756;DHT22;27435;48.480;9.258;2023-07-28T02:26:26;15.00;99.00
41756;DHT22;27435;48.480;9.258;2023-07-28T02:28:52;14.90;99.00
41756;DHT22;27435;48.480;9.258;2023-07-28T02:31:17;14.90;99.00
41756;DHT22;27435;48.480;9.258;2023-07-28T02:33:43;14.90;99.00
41756;DHT22;27435;48.480;9.258;2023-07-28T02:36:08;14.90;99.00
41756;DHT22;27435;48.480;9.258;2023-07-28T02:38:34;14.80;99.00
41756;DHT22;27435;48.480;9.258;2023-07-28T02:41:00;14.70;99.00
41756;DHT22;27435;48.480;9.258;2023-07-28T02:43:25;14.80;99.00
41756;DHT22;27435;48.480;9.258;2023-07-28T02:45:55;14.70;99.00
41756;DHT22;27435;48.480;9.258;2023-07-28T02:48:21;14.90;99.00
41756;DHT22;27435;48.480;9.258;2023-07-28T02:50:49;15.00;99.00
41756;DHT22;27435;48.480;9.258;2023-07-28T02:53:15;15.10;99.00
41756;DHT22;27435;48.480;9.258;2023-07-28T02:55:44;15.00;99.00
41756;DHT22;27435;48.480;9.258;2023-07-28T02:58:10;15.10;99.00
41756;DHT22;27435;48.480;9.258;2023-07-28T03:00:43;15.00;99.00
41756;DHT22;27435;48.480;9.258;2023-07-28T03:03:10;14.90;99.00
41756;DHT22;27435;48.480;9.258;2023-07-28T03:05:37;14.90;99.00
41756;DHT22;27435;48.480;9.258;2023-07-28T03:08:03;15.00;99.00
41756;DHT22;27435;48.480;9.258;2023-07-28T03:10:29;14.90;99.00
41756;DHT22;27435;48.480;9.258;2023-07-28T03:12:55;14.90;99.00
41756;DHT22;27435;48.480;9.258;2023-07-28T03:15:21;15.20;99.00
41756;DHT22;27435;48.480;9.258;2023-07-28T03:17:48;15.40;99.00
41756;DHT22;27435;48.480;9.258;2023-07-28T03:20:13;15.70;99.00
41756;DHT22;27435;48.480;9.258;2023-07-28T03:22:39;15.80;99.00
41756;DHT22;27435;48.480;9.258;2023-07-28T03:25:05;15.80;99.00
41756;DHT22;27435;48.480;9.258;2023-07-28T03:27:30;16.00;99.00
41756;DHT22;27435;48.480;9.258;2023-07-28T03:29:56;15.90;99.00
41756;DHT22;27435;48.480;9.258;2023-07-28T03:32:22;15.80;99.00
41756;DHT22;27435;48.480;9.258;2023-07-28T03:34:47;16.00;99.00
41756;DHT22;27435;48.480;9.258;2023-07-28T03:37:13;16.50;99.00
41756;DHT22;27435;48.480;9.258;2023-07-28T03:39:39;16.50;99.00
41756;DHT22;27435;48.480;9.258;2023-07-28T03:42:04;16.60;99.00
41756;DHT22;27435;48.480;9.258;2023-07-28T03:44:30;16.70;99.00
41756;DHT22;27435;48.480;9.258;2023-07-28T03:46:56;16.80;99.00
41756;DHT22;27435;48.480;9.258;2023-07-28T03:49:21;16.90;99.00
41756;DHT22;27435;48.480;9.258;2023-07-28T03:51:47;17.20;99.00
41756;DHT22;27435;48.480;9.258;2023-07-28T03:54:12;17.40;99.00
41756;DHT22;27435;48.480;9.258;2023-07-28T03:56:38;17.50;99.00
41756;DHT22;27435;48.480;9.258;2023-07-28T03:59:04;17.50;99.00
41756;DHT22;27435;48.480;9.258;2023-07-28T04:01:29;17.50;99.00
41756;DHT22;27435;48.480;9.258;2023-07-28T04:03:55;17.60;99.00
41756;DHT22;27435;48.480;9.258;2023-07-28T04:06:48;17.80;99.00
41756;DHT22;27435;48.480;9.258;2023-07-28T04:09:16;17.80;99.00
41756;DHT22;27435;48.480;9.258;2023-07-28T04:11:43;17.80;99.00
41756;DHT22;27435;48.480;9.258;2023-07-28T04:14:08;17.70;99.00
41756;DHT22;27435;48.480;9.258;2023-07-28T04:16:34;17.70;99.00
41756;DHT22;27435;48.480;9.258;2023-07-28T04:19:00;17.80;99.00
41756;DHT22;27435;48.480;9.258;2023-07-28T04:21:26;17.90;99.00
41756;DHT22;27435;48.480;9.258;2023-07-28T04:23:52;17.90;99.00
41756;DHT22;27435;48.480;9.258;2023-07-28T04:26:17;17.90;99.00
41756;DHT22;27435;48.480;9.258;2023-07-28T04:28:43;18.00;99.00
41756;DHT22;27435;48.480;9.258;2023-07-28T04:31:09;18.20;99.00
41756;DHT22;27435;48.480;9.258;2023-07-28T04:33:35;18.50;99.00
41756;DHT22;27435;48.480;9.258;2023-07-28T04:36:04;18.60;99.00
41756;DHT22;27435;48.480;9.258;2023-07-28T04:38:30;18.70;99.00
41756;DHT22;27435;48.480;9.258;2023-07-28T04:40:56;18.80;99.00
41756;DHT22;27435;48.480;9.258;2023-07-28T04:43:21;18.90;99.00
41756;DHT22;27435;48.480;9.258;2023-07-28T04:45:47;19.00;99.00
41756;DHT22;27435;48.480;9.258;2023-07-28T04:48:13;19.10;99.00
41756;DHT22;27435;48.480;9.258;2023-07-28T04:50:38;19.10;99.00
41756;DHT22;27435;48.480;9.258;2023-07-28T04:53:04;19.30;99.00
41756;DHT22;27435;48.480;9.258;2023-07-28T04:55:29;19.40;99.00
41756;DHT22;27435;48.480;9.258;2023-07-28T04:57:55;19.40;99.00
41756;DHT22;27435;48.480;9.258;2023-07-28T05:00:21;19.30;99.00
41756;DHT22;27435;48.480;9.258;2023-07-28T05:02:47;19.20;99.00
41756;DHT22;27435;48.480;9.258;2023-07-28T05:05:12;19.20;99.00
41756;DHT22;27435;48.480;9.258;2023-07-28T05:07:38;19.30;99.00
41756;DHT22;27435;48.480;9.258;2023-07-28T05:10:04;19.40;99.00
41756;DHT22;27435;48.480;9.258;2023-07-28T05:12:29;19.40;99.00
41756;DHT22;27435;48.480;9.258;2023-07-28T05:14:55;19.60;99.00
41756;DHT22;27435;48.480;9.258;2023-07-28T05:17:21;19.50;99.00
41756;DHT22;27435;48.480;9.258;2023-07-28T05:19:47;19.50;99.00
41756;DHT22;27435;48.480;9.258;2023-07-28T05:22:12;19.50;99.00
41756;DHT22;27435;48.480;9.258;2023-07-28T05:24:38;19.40;99.00
41756;DHT22;27435;48.480;9.258;2023-07-28T05:27:04;19.60;99.00
41756;DHT22;27435;48.480;9.258;2023-07-28T05:29:29;19.70;99.00
41756;DHT22;27435;48.480;9.258;2023-07-28T05:31:58;19.70;99.00
41756;DHT22;27435;48.480;9.258;2023-07-28T05:34:25;19.60;99.00
41756;DHT22;27435;48.480;9.258;2023-07-28T05:36:51;19.60;99.00
41756;DHT22;27435;48.480;9.258;2023-07-28T05:39:16;19.50;99.00
41756;DHT22;27435;48.480;9.258;2023-07-28T05:41:42;19.40;99.00
41756;DHT22;27435;48.480;9.258;2023-07-28T05:44:07;19.50;99.00
41756;DHT22;27435;48.480;9.258;2023-07-28T05:46:33;19.40;99.00
41756;DHT22;27435;48.480;9.258;2023-07-28T05:48:59;19.30;99.00
41756;DHT22;27435;48.480;9.258;2023-07-28T05:51:25;19.20;99.00
41756;DHT22;27435;48.480;9.258;2023-07-28T05:53:51;19.20;99.00
41756;DHT22;27435;48.480;9.258;2023-07-28T05:56:17;19.10;99.00
41756;DHT22;27435;48.480;9.258;2023-07-28T05:58:45;19.10;99.00
41756;DHT22;27435;48.480;9.258;2023-07-28T06:01:11;19.10;99.00
41756;DHT22;27435;48.480;9.258;2023-07-28T06:03:36;19.30;99.00
41756;DHT22;27435;48.480;9.258;2023-07-28T06:06:02;19.30;99.00
41756;DHT22;27435;48.480;9.258;2023-07-28T06:08:28;19.10;99.00
41756;DHT22;27435;48.480;9.258;2023-07-28T06:10:54;19.20;99.00
41756;DHT22;27435;48.480;9.258;2023-07-28T06:13:20;19.30;99.00
41756;DHT22;27435;48.480;9.258;2023-07-28T06:15:46;19.30;99.00
41756;DHT22;27435;48.480;9.258;2023-07-28T06:18:12;19.30;99.00
41756;DHT22;27435;48.480;9.258;2023-07-28T06:20:38;19.20;99.00
41756;DHT22;27435;48.480;9.258;2023-07-28T06:23:06;19.20;99.00
41756;DHT22;27435;48.480;9.258;2023-07-28T06:25:32;19.20;99.00
41756;DHT22;27435;48.480;9.258;2023-07-28T06:27:57;19.40;99.00
41756;DHT22;27435;48.480;9.258;2023-07-28T06:30:23;19.60;99.00
41756;DHT22;27435;48.480;9.258;2023-07-28T06:32:49;19.50;99.00
41756;DHT22;27435;48.480;9.258;2023-07-28T06:35:14;19.70;99.00
41756;DHT22;27435;48.480;9.258;2023-07-28T06:37:40;19.70;99.00
41756;DHT22;27435;48.480;9.258;2023-07-28T06:40:06;19.60;99.00
41756;DHT22;27435;48.480;9.258;2023-07-28T06:42:34;19.50;99.00
41756;DHT22;27435;48.480;9.258;2023-07-28T06:45:00;19.40;99.00
41756;DHT22;27435;48.480;9.258;2023-07-28T06:47:28;19.50;99.00
41756;DHT22;27435;48.480;9.258;2023-07-28T06:49:53;19.50;99.00
41756;DHT22;27435;48.480;9.258;2023-07-28T06:52:19;19.40;99.00
41756;DHT22;27435;48.480;9.258;2023-07-28T06:54:44;19.20;99.00
41756;DHT22;27435;48.480;9.258;2023-07-28T06:57:12;19.20;99.00
41756;DHT22;27435;48.480;9.258;2023-07-28T06:59:38;19.20;99.00
41756;DHT22;27435;48.480;9.258;2023-07-28T07:02:03;19.40;99.00
41756;DHT22;27435;48.480;9.258;2023-07-28T07:04:29;19.30;99.00
41756;DHT22;27435;48.480;9.258;2023-07-28T07:06:55;19.20;99.00
41756;DHT22;27435;48.480;9.258;2023-07-28T07:09:20;19.30;99.00
41756;DHT22;27435;48.480;9.258;2023-07-28T07:11:46;19.20;99.00
41756;DHT22;27435;48.480;9.258;2023-07-28T07:14:12;19.50;99.00
41756;DHT22;27435;48.480;9.258;2023-07-28T07:16:37;19.80;99.00
41756;DHT22;27435;48.480;9.258;2023-07-28T07:19:03;20.10;99.00
41756;DHT22;27435;48.480;9.258;2023-07-28T07:21:29;20.30;99.00
41756;DHT22;27435;48.480;9.258;2023-07-28T07:23:54;20.50;99.00
41756;DHT22;27435;48.480;9.258;2023-07-28T07:26:20;20.60;99.00
41756;DHT22;27435;48.480;9.258;2023-07-28T07:28:46;20.20;99.00
41756;DHT22;27435;48.480;9.258;2023-07-28T07:31:12;20.40;99.00
41756;DHT22;27435;48.480;9.258;2023-07-28T07:33:39;20.90;99.00
41756;DHT22;27435;48.480;9.258;2023-07-28T07:36:05;21.30;99.00
41756;DHT22;27435;48.480;9.258;2023-07-28T07:38:31;21.70;99.00
41756;DHT22;27435;48.480;9.258;2023-07-28T07:40:57;21.80;99.00
41756;DHT22;27435;48.480;9.258;2023-07-28T07:43:22;21.90;99.00
41756;DHT22;27435;48.480;9.258;2023-07-28T07:45:48;21.90;98.60
41756;DHT22;27435;48.480;9.258;2023-07-28T07:48:16;21.70;97.80
41756;DHT22;27435;48.480;9.258;2023-07-28T07:50:43;21.60;97.80
41756;DHT22;27435;48.480;9.258;2023-07-28T07:53:13;21.60;98.60
41756;DHT22;27435;48.480;9.258;2023-07-28T07:55:39;22.00;97.70
41756;DHT22;27435;48.480;9.258;2023-07-28T07:58:04;22.40;96.30
41756;DHT22;27435;48.480;9.258;2023-07-28T08:00:32;22.60;94.90
41756;DHT22;27435;48.480;9.258;2023-07-28T08:03:01;22.10;95.80
41756;DHT22;27435;48.480;9.258;2023-07-28T08:05:35;21.70;95.90
41756;DHT22;27435;48.480;9.258;2023-07-28T08:08:06;21.40;98.00
41756;DHT22;27435;48.480;9.258;2023-07-28T08:10:35;21.60;98.20
41756;DHT22;27435;48.480;9.258;2023-07-28T08:13:01;21.90;97.00
41756;DHT22;27435;48.480;9.258;2023-07-28T08:15:46;21.90;96.00
41756;DHT22;27435;48.480;9.258;2023-07-28T08:18:21;22.00;95.90
41756;DHT22;27435;48.480;9.258;2023-07-28T08:20:53;22.00;95.40
41756;DHT22;27435;48.480;9.258;2023-07-28T08:23:21;22.10;95.50
41756;DHT22;27435;48.480;9.258;2023-07-28T08:28:29;22.50;94.50
41756;DHT22;27435;48.480;9.258;2023-07-28T08:30:58;22.80;93.70
41756;DHT22;27435;48.480;9.258;2023-07-28T08:33:27;23.00;92.30
41756;DHT22;27435;48.480;9.258;2023-07-28T08:36:01;23.10;91.60
41756;DHT22;27435;48.480;9.258;2023-07-28T08:38:31;23.20;89.10
41756;DHT22;27435;48.480;9.258;2023-07-28T08:41:00;23.30;89.00
41756;DHT22;27435;48.480;9.258;2023-07-28T08:43:26;23.50;88.90
41756;DHT22;27435;48.480;9.258;2023-07-28T08:45:55;23.50;89.80
41756;DHT22;27435;48.480;9.258;2023-07-28T08:48:21;23.70;89.30
41756;DHT22;27435;48.480;9.258;2023-07-28T08:50:47;23.70;89.00
41756;DHT22;27435;48.480;9.258;2023-07-28T08:53:27;23.40;88.60
41756;DHT22;27435;48.480;9.258;2023-07-28T08:55:58;23.30;90.40
41756;DHT22;27435;48.480;9.258;2023-07-28T08:58:27;23.40;89.30
41756;DHT22;27435;48.480;9.258;2023-07-28T09:01:23;23.50;89.80
41756;DHT22;27435;48.480;9.258;2023-07-28T09:03:56;24.00;88.20
41756;DHT22;27435;48.480;9.258;2023-07-28T09:06:47;24.00;87.50
41756;DHT22;27435;48.480;9.258;2023-07-28T09:09:15;24.40;86.20
41756;DHT22;27435;48.480;9.258;2023-07-28T09:11:59;24.60;86.10
41756;DHT22;27435;48.480;9.258;2023-07-28T09:14:30;25.10;84.40
41756;DHT22;27435;48.480;9.258;2023-07-28T09:17:17;25.20;83.90
41756;DHT22;27435;48.480;9.258;2023-07-28T09:20:12;25.60;83.20
41756;DHT22;27435;48.480;9.258;2023-07-28T09:22:41;25.90;80.30
41756;DHT22;27435;48.480;9.258;2023-07-28T09:25:18;25.90;78.90
41756;DHT22;27435;48.480;9.258;2023-07-28T09:27:51;25.70;80.10
41756;DHT22;27435;48.480;9.258;2023-07-28T09:30:23;24.60;82.80
41756;DHT22;27435;48.480;9.258;2023-07-28T09:32:52;24.20;84.20
41756;DHT22;27435;48.480;9.258;2023-07-28T09:35:22;24.00;85.00
41756;DHT22;27435;48.480;9.258;2023-07-28T09:37:53;23.90;85.80
41756;DHT22;27435;48.480;9.258;2023-07-28T09:40:22;23.60;87.00
41756;DHT22;27435;48.480;9.258;2023-07-28T09:43:00;23.80;87.00
41756;DHT22;27435;48.480;9.258;2023-07-28T09:45:25;23.70;86.20
41756;DHT22;27435;48.480;9.258;2023-07-28T09:48:01;24.00;85.50
41756;DHT22;27435;48.480;9.258;2023-07-28T09:50:35;24.00;84.90
41756;DHT22;27435;48.480;9.258;2023-07-28T09:53:10;23.50;86.70
41756;DHT22;27435;48.480;9.258;2023-07-28T09:55:44;23.50;86.10
41756;DHT22;27435;48.480;9.258;2023-07-28T09:58:16;23.50;85.40
41756;DHT22;27435;48.480;9.258;2023-07-28T10:00:45;24.00;85.10
41756;DHT22;27435;48.480;9.258;2023-07-28T10:03:23;24.20;83.20
41756;DHT22;27435;48.480;9.258;2023-07-28T10:05:49;24.20;83.00
41756;DHT22;27435;48.480;9.258;2023-07-28T10:08:20;24.10;83.00
41756;DHT22;27435;48.480;9.258;2023-07-28T10:10:52;24.10;82.80
41756;DHT22;27435;48.480;9.258;2023-07-28T10:13:23;24.50;81.70
41756;DHT22;27435;48.480;9.258;2023-07-28T10:15:51;25.10;80.30
41756;DHT22;27435;48.480;9.258;2023-07-28T10:18:20;25.20;79.90
41756;DHT22;27435;48.480;9.258;2023-07-28T10:20:50;25.20;79.20
41756;DHT22;27435;48.480;9.258;2023-07-28T10:23:21;24.90;77.70
41756;DHT22;27435;48.480;9.258;2023-07-28T10:25:58;24.90;78.70
41756;DHT22;27435;48.480;9.258;2023-07-28T10:31:01;24.90;79.70
41756;DHT22;27435;48.480;9.258;2023-07-28T10:33:44;24.40;79.30
41756;DHT22;27435;48.480;9.258;2023-07-28T10:39:16;24.30;79.30
41756;DHT22;27435;48.480;9.258;2023-07-28T10:42:22;24.60;78.70
41756;DHT22;27435;48.480;9.258;2023-07-28T10:45:03;24.80;78.60
41756;DHT22;27435;48.480;9.258;2023-07-28T10:47:32;24.70;79.10
41756;DHT22;27435;48.480;9.258;2023-07-28T10:50:04;24.40;80.80
41756;DHT22;27435;48.480;9.258;2023-07-28T10:52:33;24.40;81.50
41756;DHT22;27435;48.480;9.258;2023-07-28T10:55:22;24.50;81.10
41756;DHT22;27435;48.480;9.258;2023-07-28T10:57:56;24.20;81.60
41756;DHT22;27435;48.480;9.258;2023-07-28T11:00:26;24.40;81.00
41756;DHT22;27435;48.480;9.258;2023-07-28T11:03:17;24.20;81.80
41756;DHT22;27435;48.480;9.258;2023-07-28T11:05:54;24.20;81.30
41756;DHT22;27435;48.480;9.258;2023-07-28T11:08:23;24.50;81.00
41756;DHT22;27435;48.480;9.258;2023-07-28T11:10:51;25.00;79.50
41756;DHT22;27435;48.480;9.258;2023-07-28T11:13:22;25.60;77.50
41756;DHT22;27435;48.480;9.258;2023-07-28T11:15:50;26.30;77.30
41756;DHT22;27435;48.480;9.258;2023-07-28T11:18:18;26.10;76.70
41756;DHT22;27435;48.480;9.258;2023-07-28T11:20:49;26.00;76.70
41756;DHT22;27435;48.480;9.258;2023-07-28T11:23:20;26.10;74.70
41756;DHT22;27435;48.480;9.258;2023-07-28T11:25:52;25.80;76.70
41756;DHT22;27435;48.480;9.258;2023-07-28T11:28:28;25.60;72.00
41756;DHT22;27435;48.480;9.258;2023-07-28T11:30:53;25.00;72.70
41756;DHT22;27435;48.480;9.258;2023-07-28T11:33:24;24.50;72.20
41756;DHT22;27435;48.480;9.258;2023-07-28T11:35:52;23.90;77.20
41756;DHT22;27435;48.480;9.258;2023-07-28T11:38:22;23.40;83.80
41756;DHT22;27435;48.480;9.258;2023-07-28T11:40:52;22.60;83.70
41756;DHT22;27435;48.480;9.258;2023-07-28T11:43:19;22.00;86.70
41756;DHT22;27435;48.480;9.258;2023-07-28T11:45:50;20.90;92.80
41756;DHT22;27435;48.480;9.258;2023-07-28T11:48:24;20.20;95.10
41756;DHT22;27435;48.480;9.258;2023-07-28T11:51:05;19.90;99.00
41756;DHT22;27435;48.480;9.258;2023-07-28T11:53:48;20.00;99.00
41756;DHT22;27435;48.480;9.258;2023-07-28T11:56:18;20.00;99.00
41756;DHT22;27435;48.480;9.258;2023-07-28T11:58:43;20.20;99.00
41756;DHT22;27435;48.480;9.258;2023-07-28T12:01:12;20.70;98.90
41756;DHT22;27435;48.480;9.258;2023-07-28T12:03:41;21.20;98.30
41756;DHT22;27435;48.480;9.258;2023-07-28T12:06:09;21.40;96.80
41756;DHT22;27435;48.480;9.258;2023-07-28T12:08:45;21.90;98.00
41756;DHT22;27435;48.480;9.258;2023-07-28T12:14:09;23.10;94.50
41756;DHT22;27435;48.480;9.258;2023-07-28T12:16:47;24.00;89.70
41756;DHT22;27435;48.480;9.258;2023-07-28T12:19:21;24.40;87.30
41756;DHT22;27435;48.480;9.258;2023-07-28T12:21:52;24.70;88.50
41756;DHT22;27435;48.480;9.258;2023-07-28T12:24:24;25.00;88.40
41756;DHT22;27435;48.480;9.258;2023-07-28T12:26:55;24.90;86.30
41756;DHT22;27435;48.480;9.258;2023-07-28T12:29:41;24.80;88.70
41756;DHT22;27435;48.480;9.258;2023-07-28T12:32:10;24.70;89.00
41756;DHT22;27435;48.480;9.258;2023-07-28T12:34:48;24.70;88.30
41756;DHT22;27435;48.480;9.258;2023-07-28T12:37:22;24.90;86.40
41756;DHT22;27435;48.480;9.258;2023-07-28T12:39:51;24.80;86.80
41756;DHT22;27435;48.480;9.258;2023-07-28T12:42:24;24.70;87.90
41756;DHT22;27435;48.480;9.258;2023-07-28T12:44:50;24.80;85.60
41756;DHT22;27435;48.480;9.258;2023-07-28T12:47:26;25.10;85.20
41756;DHT22;27435;48.480;9.258;2023-07-28T12:49:52;25.50;83.80
41756;DHT22;27435;48.480;9.258;2023-07-28T12:52:22;25.90;80.30
41756;DHT22;27435;48.480;9.258;2023-07-28T12:54:50;26.00;79.60
41756;DHT22;27435;48.480;9.258;2023-07-28T12:57:21;26.40;80.00
41756;DHT22;27435;48.480;9.258;2023-07-28T12:59:57;26.40;79.80
41756;DHT22;27435;48.480;9.258;2023-07-28T13:02:37;26.20;83.80
41756;DHT22;27435;48.480;9.258;2023-07-28T13:05:05;26.00;81.50
41756;DHT22;27435;48.480;9.258;2023-07-28T13:07:39;25.90;81.80
41756;DHT22;27435;48.480;9.258;2023-07-28T13:10:33;26.00;79.40
41756;DHT22;27435;48.480;9.258;2023-07-28T13:13:07;26.30;77.90
41756;DHT22;27435;48.480;9.258;2023-07-28T13:15:38;26.50;77.10
41756;DHT22;27435;48.480;9.258;2023-07-28T13:18:08;26.30;76.90
41756;DHT22;27435;48.480;9.258;2023-07-28T13:20:36;26.40;77.30
41756;DHT22;27435;48.480;9.258;2023-07-28T13:23:05;26.20;77.60
41756;DHT22;27435;48.480;9.258;2023-07-28T13:25:42;25.70;80.00
41756;DHT22;27435;48.480;9.258;2023-07-28T13:28:08;25.70;80.90
41756;DHT22;27435;48.480;9.258;2023-07-28T13:30:39;25.70;81.00
41756;DHT22;27435;48.480;9.258;2023-07-28T13:33:13;25.50;82.10
41756;DHT22;27435;48.480;9.258;2023-07-28T13:35:44;25.20;83.10
41756;DHT22;27435;48.480;9.258;2023-07-28T13:38:13;25.10;85.90
41756;DHT22;27435;48.480;9.258;2023-07-28T13:40:47;24.80;86.30
41756;DHT22;27435;48.480;9.258;2023-07-28T13:43:18;24.10;88.10
41756;DHT22;27435;48.480;9.258;2023-07-28T13:45:44;23.80;89.00
41756;DHT22;27435;48.480;9.258;2023-07-28T13:48:15;23.80;88.80
41756;DHT22;27435;48.480;9.258;2023-07-28T13:50:54;23.60;90.20
41756;DHT22;27435;48.480;9.258;2023-07-28T13:53:25;23.00;94.70
41756;DHT22;27435;48.480;9.258;2023-07-28T13:55:55;22.70;94.50
41756;DHT22;27435;48.480;9.258;2023-07-28T13:58:29;22.10;97.40
41756;DHT22;27435;48.480;9.258;2023-07-28T14:01:09;21.90;97.00
41756;DHT22;27435;48.480;9.258;2023-07-28T14:03:39;21.70;95.60
41756;DHT22;27435;48.480;9.258;2023-07-28T14:06:14;21.60;95.20
41756;DHT22;27435;48.480;9.258;2023-07-28T14:08:50;21.60;94.50
41756;DHT22;27435;48.480;9.258;2023-07-28T14:11:21;21.60;91.20
41756;DHT22;27435;48.480;9.258;2023-07-28T14:13:47;21.70;88.40
41756;DHT22;27435;48.480;9.258;2023-07-28T14:16:25;21.80;89.00
41756;DHT22;27435;48.480;9.258;2023-07-28T14:18:51;22.00;90.70
41756;DHT22;27435;48.480;9.258;2023-07-28T14:21:24;22.10;90.10
41756;DHT22;27435;48.480;9.258;2023-07-28T14:23:53;22.30;86.40
41756;DHT22;27435;48.480;9.258;2023-07-28T14:26:27;22.50;87.10
41756;DHT22;27435;48.480;9.258;2023-07-28T14:28:56;22.70;86.10
41756;DHT22;27435;48.480;9.258;2023-07-28T14:31:22;22.60;88.40
41756;DHT22;27435;48.480;9.258;2023-07-28T14:33:50;22.80;86.90
41756;DHT22;27435;48.480;9.258;2023-07-28T14:36:23;23.00;86.10
41756;DHT22;27435;48.480;9.258;2023-07-28T14:38:57;23.40;86.00
41756;DHT22;27435;48.480;9.258;2023-07-28T14:41:27;23.70;84.90
41756;DHT22;27435;48.480;9.258;2023-07-28T14:43:53;23.90;85.40
41756;DHT22;27435;48.480;9.258;2023-07-28T14:46:21;24.10;85.20
41756;DHT22;27435;48.480;9.258;2023-07-28T14:49:13;24.70;81.90
41756;DHT22;27435;48.480;9.258;2023-07-28T14:51:46;25.90;79.90
41756;DHT22;27435;48.480;9.258;2023-07-28T14:54:16;27.30;74.90
41756;DHT22;27435;48.480;9.258;2023-07-28T14:56:47;28.70;69.10
41756;DHT22;27435;48.480;9.258;2023-07-28T14:59:22;29.00;67.90
41756;DHT22;27435;48.480;9.258;2023-07-28T15:02:06;28.80;65.60
41756;DHT22;27435;48.480;9.258;2023-07-28T15:04:31;27.80;68.10
41756;DHT22;27435;48.480;9.258;2023-07-28T15:07:03;26.90;70.90
41756;DHT22;27435;48.480;9.258;2023-07-28T15:09:28;25.80;72.80
41756;DHT22;27435;48.480;9.258;2023-07-28T15:11:56;25.50;72.90
41756;DHT22;27435;48.480;9.258;2023-07-28T15:14:24;24.70;75.90
41756;DHT22;27435;48.480;9.258;2023-07-28T15:17:01;24.50;78.00
41756;DHT22;27435;48.480;9.258;2023-07-28T15:19:30;23.80;79.00
41756;DHT22;27435;48.480;9.258;2023-07-28T15:21:58;23.90;79.80
41756;DHT22;27435;48.480;9.258;2023-07-28T15:24:26;24.50;77.60
41756;DHT22;27435;48.480;9.258;2023-07-28T15:26:54;24.20;78.70
41756;DHT22;27435;48.480;9.258;2023-07-28T15:29:28;23.80;80.20
41756;DHT22;27435;48.480;9.258;2023-07-28T15:31:58;23.80;80.50
41756;DHT22;27435;48.480;9.258;2023-07-28T15:34:42;23.70;81.00
41756;DHT22;27435;48.480;9.258;2023-07-28T15:37:10;23.30;83.00
41756;DHT22;27435;48.480;9.258;2023-07-28T15:39:48;23.30;83.80
41756;DHT22;27435;48.480;9.258;2023-07-28T15:42:24;23.60;83.50
41756;DHT22;27435;48.480;9.258;2023-07-28T15:44:55;23.70;82.60
41756;DHT22;27435;48.480;9.258;2023-07-28T15:47:21;23.80;82.60
41756;DHT22;27435;48.480;9.258;2023-07-28T15:49:56;23.60;82.80
41756;DHT22;27435;48.480;9.258;2023-07-28T15:52:28;23.40;84.10
41756;DHT22;27435;48.480;9.258;2023-07-28T15:54:54;23.20;85.10
41756;DHT22;27435;48.480;9.258;2023-07-28T15:57:22;23.00;86.40
41756;DHT22;27435;48.480;9.258;2023-07-28T15:59:59;22.90;87.10